sensor_id;sensor_type;location;lat;lon;timestamp;P1;durP1;ratioP1;P2;durP2;ratioP2
21825;SDS011;11075;47.944;11.776;2022-08-19T00:01:39;4.88;;;4.30;;
21825;SDS011;11075;47.944;11.776;2022-08-19T00:04:09;4.40;;;4.00;;
21825;SDS011;11075;47.944;11.776;2022-08-19T00:06:38;3.95;;;3.55;;
21825;SDS011;11075;47.944;11.776;2022-08-19T00:09:09;4.53;;;3.58;;
21825;SDS011;11075;47.944;11.776;2022-08-19T00:11:38;4.15;;;3.72;;
21825;SDS011;11075;47.944;11.776;2022-08-19T00:14:05;3.90;;;3.53;;
21825;SDS011;11075;47.944;11.776;2022-08-19T00:16:35;5.40;;;3.75;;
21825;SDS011;11075;47.944;11.776;2022-08-19T00:19:05;3.78;;;3.45;;
21825;SDS011;11075;47.944;11.776;2022-08-19T00:21:32;3.78;;;3.47;;
21825;SDS011;11075;47.944;11.776;2022-08-19T00:23:59;3.72;;;3.33;;
21825;SDS011;11075;47.944;11.776;2022-08-19T00:26:27;7.03;;;3.63;;
21825;SDS011;11075;47.944;11.776;2022-08-19T00:28:54;4.60;;;3.85;;
21825;SDS011;11075;47.944;11.776;2022-08-19T00:31:21;4.53;;;3.17;;
21825;SDS011;11075;47.944;11.776;2022-08-19T00:33:48;3.50;;;3.20;;
21825;SDS011;11075;47.944;11.776;2022-08-19T00:36:17;4.47;;;3.28;;
21825;SDS011;11075;47.944;11.776;2022-08-19T00:38:44;3.38;;;3.08;;
21825;SDS011;11075;47.944;11.776;2022-08-19T00:41:14;5.20;;;3.25;;
21825;SDS011;11075;47.944;11.776;2022-08-19T00:43:49;3.33;;;2.83;;
21825;SDS011;11075;47.944;11.776;2022-08-19T00:46:27;3.17;;;2.92;;
21825;SDS011;11075;47.944;11.776;2022-08-19T00:48:54;3.97;;;2.97;;
21825;SDS011;11075;47.944;11.776;2022-08-19T00:51:24;2.80;;;2.60;;
21825;SDS011;11075;47.944;11.776;2022-08-19T00:53:54;4.40;;;2.60;;
21825;SDS011;11075;47.944;11.776;2022-08-19T00:56:23;2.90;;;2.40;;
21825;SDS011;11075;47.944;11.776;2022-08-19T00:58:50;3.28;;;2.47;;
21825;SDS011;11075;47.944;11.776;2022-08-19T01:01:17;3.97;;;2.53;;
21825;SDS011;11075;47.944;11.776;2022-08-19T01:03:44;3.20;;;2.40;;
21825;SDS011;11075;47.944;11.776;2022-08-19T01:06:23;2.65;;;2.42;;
21825;SDS011;11075;47.944;11.776;2022-08-19T01:08:51;2.80;;;2.60;;
21825;SDS011;11075;47.944;11.776;2022-08-19T01:11:19;3.50;;;2.60;;
21825;SDS011;11075;47.944;11.776;2022-08-19T01:13:47;3.25;;;2.88;;
21825;SDS011;11075;47.944;11.776;2022-08-19T01:16:16;3.65;;;2.72;;
21825;SDS011;11075;47.944;11.776;2022-08-19T01:18:45;3.10;;;2.80;;
21825;SDS011;11075;47.944;11.776;2022-08-19T01:21:27;2.63;;;2.42;;
21825;SDS011;11075;47.944;11.776;2022-08-19T01:24:00;6.25;;;3.13;;
21825;SDS011;11075;47.944;11.776;2022-08-19T01:26:27;2.90;;;2.70;;
21825;SDS011;11075;47.944;11.776;2022-08-19T01:28:57;2.03;;;1.90;;
21825;SDS011;11075;47.944;11.776;2022-08-19T01:31:27;3.88;;;2.25;;
21825;SDS011;11075;47.944;11.776;2022-08-19T01:33:59;4.43;;;2.17;;
21825;SDS011;11075;47.944;11.776;2022-08-19T01:38:57;2.70;;;2.35;;
21825;SDS011;11075;47.944;11.776;2022-08-19T01:41:25;4.22;;;2.65;;
21825;SDS011;11075;47.944;11.776;2022-08-19T01:43:53;2.63;;;2.42;;
21825;SDS011;11075;47.944;11.776;2022-08-19T01:46:40;3.22;;;2.90;;
21825;SDS011;11075;47.944;11.776;2022-08-19T01:49:08;3.42;;;3.13;;
21825;SDS011;11075;47.944;11.776;2022-08-19T01:51:36;3.58;;;3.28;;
21825;SDS011;11075;47.944;11.776;2022-08-19T01:54:06;3.60;;;3.30;;
21825;SDS011;11075;47.944;11.776;2022-08-19T01:56:34;4.40;;;3.40;;
21825;SDS011;11075;47.944;11.776;2022-08-19T01:59:02;4.50;;;3.25;;
21825;SDS011;11075;47.944;11.776;2022-08-19T02:01:42;4.30;;;3.60;;
21825;SDS011;11075;47.944;11.776;2022-08-19T02:04:09;4.90;;;4.05;;
21825;SDS011;11075;47.944;11.776;2022-08-19T02:06:36;4.18;;;3.78;;
21825;SDS011;11075;47.944;11.776;2022-08-19T02:09:04;3.90;;;3.50;;
21825;SDS011;11075;47.944;11.776;2022-08-19T02:11:32;3.75;;;3.45;;
21825;SDS011;11075;47.944;11.776;2022-08-19T02:14:02;3.83;;;3.40;;
21825;SDS011;11075;47.944;11.776;2022-08-19T02:16:32;4.03;;;3.28;;
21825;SDS011;11075;47.944;11.776;2022-08-19T02:18:59;3.00;;;2.72;;
21825;SDS011;11075;47.944;11.776;2022-08-19T02:21:29;3.05;;;2.75;;
21825;SDS011;11075;47.944;11.776;2022-08-19T02:23:56;3.08;;;2.78;;
21825;SDS011;11075;47.944;11.776;2022-08-19T02:26:24;4.15;;;3.63;;
21825;SDS011;11075;47.944;11.776;2022-08-19T02:28:53;3.28;;;2.97;;
21825;SDS011;11075;47.944;11.776;2022-08-19T02:31:22;4.28;;;3.60;;
21825;SDS011;11075;47.944;11.776;2022-08-19T02:33:51;3.22;;;2.92;;
21825;SDS011;11075;47.944;11.776;2022-08-19T02:36:23;3.95;;;3.05;;
21825;SDS011;11075;47.944;11.776;2022-08-19T02:38:51;3.40;;;3.10;;
21825;SDS011;11075;47.944;11.776;2022-08-19T02:41:22;3.63;;;3.03;;
21825;SDS011;11075;47.944;11.776;2022-08-19T02:43:55;3.88;;;3.50;;
21825;SDS011;11075;47.944;11.776;2022-08-19T02:46:45;4.13;;;3.25;;
21825;SDS011;11075;47.944;11.776;2022-08-19T02:49:13;3.17;;;2.90;;
21825;SDS011;11075;47.944;11.776;2022-08-19T02:51:43;3.75;;;3.40;;
21825;SDS011;11075;47.944;11.776;2022-08-19T02:54:12;4.10;;;3.63;;
21825;SDS011;11075;47.944;11.776;2022-08-19T02:56:40;3.90;;;3.35;;
21825;SDS011;11075;47.944;11.776;2022-08-19T02:59:08;6.25;;;3.30;;
21825;SDS011;11075;47.944;11.776;2022-08-19T03:01:37;4.05;;;3.60;;
21825;SDS011;11075;47.944;11.776;2022-08-19T03:04:07;5.15;;;3.38;;
21825;SDS011;11075;47.944;11.776;2022-08-19T03:06:36;4.35;;;3.92;;
21825;SDS011;11075;47.944;11.776;2022-08-19T03:09:05;4.05;;;3.65;;
21825;SDS011;11075;47.944;11.776;2022-08-19T03:11:32;4.32;;;3.58;;
21825;SDS011;11075;47.944;11.776;2022-08-19T03:14:00;4.30;;;3.50;;
21825;SDS011;11075;47.944;11.776;2022-08-19T03:16:28;3.85;;;3.47;;
21825;SDS011;11075;47.944;11.776;2022-08-19T03:18:59;3.58;;;3.28;;
21825;SDS011;11075;47.944;11.776;2022-08-19T03:21:27;4.25;;;3.20;;
21825;SDS011;11075;47.944;11.776;2022-08-19T03:23:56;3.85;;;3.28;;
21825;SDS011;11075;47.944;11.776;2022-08-19T03:26:25;3.60;;;3.10;;
21825;SDS011;11075;47.944;11.776;2022-08-19T03:28:52;3.42;;;3.13;;
21825;SDS011;11075;47.944;11.776;2022-08-19T03:31:24;3.25;;;2.92;;
21825;SDS011;11075;47.944;11.776;2022-08-19T03:34:11;2.58;;;2.38;;
21825;SDS011;11075;47.944;11.776;2022-08-19T03:36:40;3.20;;;2.90;;
21825;SDS011;11075;47.944;11.776;2022-08-19T03:39:08;2.80;;;2.60;;
21825;SDS011;11075;47.944;11.776;2022-08-19T03:41:38;2.72;;;2.50;;
21825;SDS011;11075;47.944;11.776;2022-08-19T03:44:15;5.63;;;2.70;;
21825;SDS011;11075;47.944;11.776;2022-08-19T03:46:46;2.58;;;2.38;;
21825;SDS011;11075;47.944;11.776;2022-08-19T03:49:18;2.70;;;2.50;;
21825;SDS011;11075;47.944;11.776;2022-08-19T03:51:52;4.07;;;2.40;;
21825;SDS011;11075;47.944;11.776;2022-08-19T03:54:20;3.30;;;2.30;;
21825;SDS011;11075;47.944;11.776;2022-08-19T03:56:50;3.28;;;2.42;;
21825;SDS011;11075;47.944;11.776;2022-08-19T03:59:23;6.88;;;2.67;;
21825;SDS011;11075;47.944;11.776;2022-08-19T04:01:56;2.92;;;2.63;;
21825;SDS011;11075;47.944;11.776;2022-08-19T04:04:25;2.22;;;2.03;;
21825;SDS011;11075;47.944;11.776;2022-08-19T04:06:55;4.13;;;2.35;;
21825;SDS011;11075;47.944;11.776;2022-08-19T04:09:23;2.95;;;2.28;;
21825;SDS011;11075;47.944;11.776;2022-08-19T04:11:50;2.20;;;1.90;;
21825;SDS011;11075;47.944;11.776;2022-08-19T04:14:21;3.50;;;2.47;;
21825;SDS011;11075;47.944;11.776;2022-08-19T04:16:50;4.30;;;2.53;;
21825;SDS011;11075;47.944;11.776;2022-08-19T04:19:18;2.20;;;2.00;;
21825;SDS011;11075;47.944;11.776;2022-08-19T04:21:47;3.55;;;2.08;;
21825;SDS011;11075;47.944;11.776;2022-08-19T04:24:16;2.38;;;2.17;;
21825;SDS011;11075;47.944;11.776;2022-08-19T04:26:44;2.78;;;2.38;;
21825;SDS011;11075;47.944;11.776;2022-08-19T04:29:21;4.00;;;2.15;;
21825;SDS011;11075;47.944;11.776;2022-08-19T04:31:52;4.13;;;2.10;;
21825;SDS011;11075;47.944;11.776;2022-08-19T04:34:20;3.97;;;2.20;;
21825;SDS011;11075;47.944;11.776;2022-08-19T04:36:50;4.97;;;2.30;;
21825;SDS011;11075;47.944;11.776;2022-08-19T04:39:22;2.35;;;2.15;;
21825;SDS011;11075;47.944;11.776;2022-08-19T04:42:12;4.60;;;2.10;;
21825;SDS011;11075;47.944;11.776;2022-08-19T04:44:57;2.40;;;2.13;;
21825;SDS011;11075;47.944;11.776;2022-08-19T04:47:25;3.60;;;1.92;;
21825;SDS011;11075;47.944;11.776;2022-08-19T04:50:13;3.40;;;2.35;;
21825;SDS011;11075;47.944;11.776;2022-08-19T04:52:44;2.35;;;2.10;;
21825;SDS011;11075;47.944;11.776;2022-08-19T04:55:11;4.35;;;2.30;;
21825;SDS011;11075;47.944;11.776;2022-08-19T04:57:38;4.82;;;1.92;;
21825;SDS011;11075;47.944;11.776;2022-08-19T05:00:07;2.63;;;2.03;;
21825;SDS011;11075;47.944;11.776;2022-08-19T05:02:35;4.65;;;2.10;;
21825;SDS011;11075;47.944;11.776;2022-08-19T05:05:03;3.78;;;2.38;;
21825;SDS011;11075;47.944;11.776;2022-08-19T05:07:32;3.78;;;2.30;;
21825;SDS011;11075;47.944;11.776;2022-08-19T05:09:59;2.63;;;2.30;;
21825;SDS011;11075;47.944;11.776;2022-08-19T05:12:25;5.25;;;2.22;;
21825;SDS011;11075;47.944;11.776;2022-08-19T05:14:55;2.53;;;2.33;;
21825;SDS011;11075;47.944;11.776;2022-08-19T05:17:25;2.17;;;1.98;;
21825;SDS011;11075;47.944;11.776;2022-08-19T05:19:58;5.20;;;2.15;;
21825;SDS011;11075;47.944;11.776;2022-08-19T05:22:44;3.53;;;2.20;;
21825;SDS011;11075;47.944;11.776;2022-08-19T05:25:14;2.28;;;2.10;;
21825;SDS011;11075;47.944;11.776;2022-08-19T05:27:45;5.60;;;2.53;;
21825;SDS011;11075;47.944;11.776;2022-08-19T05:30:13;4.53;;;2.17;;
21825;SDS011;11075;47.944;11.776;2022-08-19T05:32:41;5.03;;;2.30;;
21825;SDS011;11075;47.944;11.776;2022-08-19T05:35:08;3.28;;;2.03;;
21825;SDS011;11075;47.944;11.776;2022-08-19T05:37:36;2.55;;;2.30;;
21825;SDS011;11075;47.944;11.776;2022-08-19T05:40:03;2.70;;;2.25;;
21825;SDS011;11075;47.944;11.776;2022-08-19T05:42:31;2.45;;;2.25;;
21825;SDS011;11075;47.944;11.776;2022-08-19T05:44:58;2.90;;;2.60;;
21825;SDS011;11075;47.944;11.776;2022-08-19T05:47:24;10.15;;;2.80;;
21825;SDS011;11075;47.944;11.776;2022-08-19T05:49:52;2.72;;;2.50;;
21825;SDS011;11075;47.944;11.776;2022-08-19T05:52:19;3.90;;;2.65;;
21825;SDS011;11075;47.944;11.776;2022-08-19T05:54:51;2.55;;;2.22;;
21825;SDS011;11075;47.944;11.776;2022-08-19T05:57:23;3.63;;;2.90;;
21825;SDS011;11075;47.944;11.776;2022-08-19T05:59:50;2.80;;;2.50;;
21825;SDS011;11075;47.944;11.776;2022-08-19T06:02:27;4.03;;;2.60;;
21825;SDS011;11075;47.944;11.776;2022-08-19T06:04:57;6.35;;;2.47;;
21825;SDS011;11075;47.944;11.776;2022-08-19T06:07:24;4.85;;;3.00;;
21825;SDS011;11075;47.944;11.776;2022-08-19T06:09:51;2.83;;;2.60;;
21825;SDS011;11075;47.944;11.776;2022-08-19T06:12:26;5.25;;;3.50;;
21825;SDS011;11075;47.944;11.776;2022-08-19T06:15:07;4.55;;;2.65;;
21825;SDS011;11075;47.944;11.776;2022-08-19T06:17:37;5.28;;;2.70;;
21825;SDS011;11075;47.944;11.776;2022-08-19T06:20:06;2.70;;;2.45;;
21825;SDS011;11075;47.944;11.776;2022-08-19T06:22:38;3.00;;;2.80;;
21825;SDS011;11075;47.944;11.776;2022-08-19T06:25:07;3.22;;;2.58;;
21825;SDS011;11075;47.944;11.776;2022-08-19T06:27:35;2.42;;;2.22;;
21825;SDS011;11075;47.944;11.776;2022-08-19T06:30:14;3.28;;;2.97;;
21825;SDS011;11075;47.944;11.776;2022-08-19T06:32:41;3.47;;;3.17;;
21825;SDS011;11075;47.944;11.776;2022-08-19T06:35:08;5.80;;;3.25;;
21825;SDS011;11075;47.944;11.776;2022-08-19T06:37:35;4.72;;;3.38;;
21825;SDS011;11075;47.944;11.776;2022-08-19T06:40:06;3.95;;;3.55;;
21825;SDS011;11075;47.944;11.776;2022-08-19T06:42:34;5.40;;;3.90;;
21825;SDS011;11075;47.944;11.776;2022-08-19T06:45:01;4.55;;;4.07;;
21825;SDS011;11075;47.944;11.776;2022-08-19T06:47:34;4.50;;;4.07;;
21825;SDS011;11075;47.944;11.776;2022-08-19T06:50:01;5.28;;;3.80;;
21825;SDS011;11075;47.944;11.776;2022-08-19T06:52:31;3.80;;;3.50;;
21825;SDS011;11075;47.944;11.776;2022-08-19T06:55:03;4.32;;;3.92;;
21825;SDS011;11075;47.944;11.776;2022-08-19T06:57:31;3.85;;;3.40;;
21825;SDS011;11075;47.944;11.776;2022-08-19T06:59:59;4.18;;;3.78;;
21825;SDS011;11075;47.944;11.776;2022-08-19T07:02:29;4.30;;;3.85;;
21825;SDS011;11075;47.944;11.776;2022-08-19T07:04:56;5.72;;;4.28;;
21825;SDS011;11075;47.944;11.776;2022-08-19T07:07:24;4.72;;;4.22;;
21825;SDS011;11075;47.944;11.776;2022-08-19T07:09:51;5.25;;;4.13;;
21825;SDS011;11075;47.944;11.776;2022-08-19T07:12:30;5.40;;;4.25;;
21825;SDS011;11075;47.944;11.776;2022-08-19T07:15:06;5.82;;;4.25;;
21825;SDS011;11075;47.944;11.776;2022-08-19T07:17:35;5.90;;;4.25;;
21825;SDS011;11075;47.944;11.776;2022-08-19T07:20:07;6.43;;;4.10;;
21825;SDS011;11075;47.944;11.776;2022-08-19T07:22:36;5.95;;;4.13;;
21825;SDS011;11075;47.944;11.776;2022-08-19T07:25:05;5.00;;;4.20;;
21825;SDS011;11075;47.944;11.776;2022-08-19T07:27:32;5.70;;;5.10;;
21825;SDS011;11075;47.944;11.776;2022-08-19T07:30:00;5.72;;;5.10;;
21825;SDS011;11075;47.944;11.776;2022-08-19T07:32:27;7.20;;;5.82;;
21825;SDS011;11075;47.944;11.776;2022-08-19T07:34:54;5.43;;;4.93;;
21825;SDS011;11075;47.944;11.776;2022-08-19T07:37:25;8.52;;;5.80;;
21825;SDS011;11075;47.944;11.776;2022-08-19T07:39:58;7.63;;;5.65;;
21825;SDS011;11075;47.944;11.776;2022-08-19T07:42:26;7.03;;;4.85;;
21825;SDS011;11075;47.944;11.776;2022-08-19T07:44:54;10.32;;;5.78;;
21825;SDS011;11075;47.944;11.776;2022-08-19T07:47:21;6.25;;;4.90;;
21825;SDS011;11075;47.944;11.776;2022-08-19T07:50:09;7.93;;;5.00;;
21825;SDS011;11075;47.944;11.776;2022-08-19T07:52:38;6.15;;;5.30;;
21825;SDS011;11075;47.944;11.776;2022-08-19T07:55:07;6.38;;;4.90;;
21825;SDS011;11075;47.944;11.776;2022-08-19T07:57:56;6.93;;;5.50;;
21825;SDS011;11075;47.944;11.776;2022-08-19T08:00:23;5.40;;;4.90;;
21825;SDS011;11075;47.944;11.776;2022-08-19T08:02:51;8.68;;;5.38;;
21825;SDS011;11075;47.944;11.776;2022-08-19T08:05:21;6.63;;;4.72;;
21825;SDS011;11075;47.944;11.776;2022-08-19T08:08:10;5.10;;;4.50;;
21825;SDS011;11075;47.944;11.776;2022-08-19T08:10:57;6.45;;;4.60;;
21825;SDS011;11075;47.944;11.776;2022-08-19T08:13:25;5.70;;;4.88;;
21825;SDS011;11075;47.944;11.776;2022-08-19T08:15:53;5.80;;;5.20;;
21825;SDS011;11075;47.944;11.776;2022-08-19T08:18:22;5.25;;;4.60;;
21825;SDS011;11075;47.944;11.776;2022-08-19T08:20:54;5.45;;;4.68;;
21825;SDS011;11075;47.944;11.776;2022-08-19T08:23:22;4.85;;;4.35;;
21825;SDS011;11075;47.944;11.776;2022-08-19T08:25:52;5.10;;;4.38;;
21825;SDS011;11075;47.944;11.776;2022-08-19T08:28:21;5.72;;;4.10;;
21825;SDS011;11075;47.944;11.776;2022-08-19T08:30:49;5.57;;;5.00;;
21825;SDS011;11075;47.944;11.776;2022-08-19T08:33:18;6.53;;;4.85;;
21825;SDS011;11075;47.944;11.776;2022-08-19T08:35:59;6.53;;;5.07;;
21825;SDS011;11075;47.944;11.776;2022-08-19T08:38:32;5.70;;;4.43;;
21825;SDS011;11075;47.944;11.776;2022-08-19T08:41:09;7.32;;;4.40;;
21825;SDS011;11075;47.944;11.776;2022-08-19T08:43:39;5.43;;;4.65;;
21825;SDS011;11075;47.944;11.776;2022-08-19T08:46:12;4.95;;;4.20;;
21825;SDS011;11075;47.944;11.776;2022-08-19T08:51:46;5.05;;;4.50;;
21825;SDS011;11075;47.944;11.776;2022-08-19T08:54:26;7.20;;;5.20;;
21825;SDS011;11075;47.944;11.776;2022-08-19T08:57:02;4.63;;;4.22;;
21825;SDS011;11075;47.944;11.776;2022-08-19T08:59:34;6.45;;;4.97;;
21825;SDS011;11075;47.944;11.776;2022-08-19T09:02:05;6.47;;;4.97;;
21825;SDS011;11075;47.944;11.776;2022-08-19T09:04:33;6.10;;;4.80;;
21825;SDS011;11075;47.944;11.776;2022-08-19T09:07:19;5.82;;;5.03;;
21825;SDS011;11075;47.944;11.776;2022-08-19T09:10:04;7.70;;;5.35;;
21825;SDS011;11075;47.944;11.776;2022-08-19T09:15:12;6.13;;;5.13;;
21825;SDS011;11075;47.944;11.776;2022-08-19T09:17:41;4.93;;;4.43;;
21825;SDS011;11075;47.944;11.776;2022-08-19T09:20:21;7.63;;;5.35;;
21825;SDS011;11075;47.944;11.776;2022-08-19T09:22:51;7.55;;;5.97;;
21825;SDS011;11075;47.944;11.776;2022-08-19T09:25:19;7.68;;;6.25;;
21825;SDS011;11075;47.944;11.776;2022-08-19T09:27:55;7.82;;;6.47;;
21825;SDS011;11075;47.944;11.776;2022-08-19T09:30:32;8.35;;;6.28;;
21825;SDS011;11075;47.944;11.776;2022-08-19T09:33:05;8.57;;;6.28;;
21825;SDS011;11075;47.944;11.776;2022-08-19T09:35:32;8.30;;;6.85;;
21825;SDS011;11075;47.944;11.776;2022-08-19T09:38:19;9.00;;;6.03;;
21825;SDS011;11075;47.944;11.776;2022-08-19T09:40:47;8.25;;;6.88;;
21825;SDS011;11075;47.944;11.776;2022-08-19T09:43:16;10.95;;;7.88;;
21825;SDS011;11075;47.944;11.776;2022-08-19T09:45:59;10.15;;;7.60;;
21825;SDS011;11075;47.944;11.776;2022-08-19T09:48:27;14.90;;;8.18;;
21825;SDS011;11075;47.944;11.776;2022-08-19T09:50:54;9.93;;;7.55;;
21825;SDS011;11075;47.944;11.776;2022-08-19T09:53:21;10.50;;;7.93;;
21825;SDS011;11075;47.944;11.776;2022-08-19T09:55:51;8.63;;;6.93;;
21825;SDS011;11075;47.944;11.776;2022-08-19T09:58:18;10.88;;;8.15;;
21825;SDS011;11075;47.944;11.776;2022-08-19T10:00:51;10.82;;;7.97;;
21825;SDS011;11075;47.944;11.776;2022-08-19T10:03:20;10.45;;;7.32;;
21825;SDS011;11075;47.944;11.776;2022-08-19T10:05:51;10.95;;;8.32;;
21825;SDS011;11075;47.944;11.776;2022-08-19T10:08:25;10.88;;;8.48;;
21825;SDS011;11075;47.944;11.776;2022-08-19T10:10:55;9.00;;;7.25;;
21825;SDS011;11075;47.944;11.776;2022-08-19T10:13:25;10.65;;;7.55;;
21825;SDS011;11075;47.944;11.776;2022-08-19T10:15:56;10.68;;;7.30;;
21825;SDS011;11075;47.944;11.776;2022-08-19T10:18:29;8.98;;;7.03;;
21825;SDS011;11075;47.944;11.776;2022-08-19T10:21:07;9.10;;;6.43;;
21825;SDS011;11075;47.944;11.776;2022-08-19T10:23:37;9.57;;;7.43;;
21825;SDS011;11075;47.944;11.776;2022-08-19T10:26:06;9.00;;;7.15;;
21825;SDS011;11075;47.944;11.776;2022-08-19T10:28:34;9.00;;;6.85;;
21825;SDS011;11075;47.944;11.776;2022-08-19T10:31:05;9.63;;;7.65;;
21825;SDS011;11075;47.944;11.776;2022-08-19T10:33:37;12.05;;;8.43;;
21825;SDS011;11075;47.944;11.776;2022-08-19T10:36:20;10.35;;;7.43;;
21825;SDS011;11075;47.944;11.776;2022-08-19T10:38:49;10.73;;;7.82;;
21825;SDS011;11075;47.944;11.776;2022-08-19T10:41:23;10.40;;;7.55;;
21825;SDS011;11075;47.944;11.776;2022-08-19T10:43:55;13.35;;;8.27;;
21825;SDS011;11075;47.944;11.776;2022-08-19T10:46:29;13.00;;;7.60;;
21825;SDS011;11075;47.944;11.776;2022-08-19T10:48:59;9.68;;;7.88;;
21825;SDS011;11075;47.944;11.776;2022-08-19T10:51:27;9.77;;;6.90;;
21825;SDS011;11075;47.944;11.776;2022-08-19T10:54:14;7.60;;;6.47;;
21825;SDS011;11075;47.944;11.776;2022-08-19T10:56:41;7.80;;;6.60;;
21825;SDS011;11075;47.944;11.776;2022-08-19T10:59:27;7.75;;;5.85;;
21825;SDS011;11075;47.944;11.776;2022-08-19T11:02:01;6.82;;;5.55;;
21825;SDS011;11075;47.944;11.776;2022-08-19T11:04:31;5.28;;;4.78;;
21825;SDS011;11075;47.944;11.776;2022-08-19T11:06:58;5.85;;;4.65;;
21825;SDS011;11075;47.944;11.776;2022-08-19T11:09:25;5.50;;;4.82;;
21825;SDS011;11075;47.944;11.776;2022-08-19T11:11:59;4.53;;;4.13;;
21825;SDS011;11075;47.944;11.776;2022-08-19T11:14:30;6.57;;;4.95;;
21825;SDS011;11075;47.944;11.776;2022-08-19T11:17:00;4.82;;;4.22;;
21825;SDS011;11075;47.944;11.776;2022-08-19T11:19:28;4.43;;;4.03;;
21825;SDS011;11075;47.944;11.776;2022-08-19T11:21:55;6.80;;;4.50;;
21825;SDS011;11075;47.944;11.776;2022-08-19T11:24:24;5.35;;;4.43;;
21825;SDS011;11075;47.944;11.776;2022-08-19T11:26:52;5.20;;;4.18;;
21825;SDS011;11075;47.944;11.776;2022-08-19T11:29:25;5.13;;;3.80;;
21825;SDS011;11075;47.944;11.776;2022-08-19T11:31:54;4.18;;;3.78;;
21825;SDS011;11075;47.944;11.776;2022-08-19T11:34:22;6.78;;;4.32;;
21825;SDS011;11075;47.944;11.776;2022-08-19T11:36:53;5.00;;;3.83;;
21825;SDS011;11075;47.944;11.776;2022-08-19T11:39:24;4.75;;;4.10;;
21825;SDS011;11075;47.944;11.776;2022-08-19T11:41:52;3.83;;;3.38;;
21825;SDS011;11075;47.944;11.776;2022-08-19T11:44:19;4.22;;;3.83;;
21825;SDS011;11075;47.944;11.776;2022-08-19T11:46:46;3.67;;;3.38;;
21825;SDS011;11075;47.944;11.776;2022-08-19T11:49:14;3.90;;;3.58;;
21825;SDS011;11075;47.944;11.776;2022-08-19T11:51:47;3.72;;;3.38;;
21825;SDS011;11075;47.944;11.776;2022-08-19T11:54:16;2.92;;;2.72;;
21825;SDS011;11075;47.944;11.776;2022-08-19T11:56:44;3.83;;;3.42;;
21825;SDS011;11075;47.944;11.776;2022-08-19T11:59:12;3.28;;;2.97;;
21825;SDS011;11075;47.944;11.776;2022-08-19T12:01:40;3.55;;;3.25;;
21825;SDS011;11075;47.944;11.776;2022-08-19T12:04:09;3.63;;;3.33;;
21825;SDS011;11075;47.944;11.776;2022-08-19T12:06:38;3.28;;;2.88;;
21825;SDS011;11075;47.944;11.776;2022-08-19T12:09:06;3.30;;;2.80;;
21825;SDS011;11075;47.944;11.776;2022-08-19T12:11:36;4.47;;;2.95;;
21825;SDS011;11075;47.944;11.776;2022-08-19T12:14:04;5.25;;;2.35;;
21825;SDS011;11075;47.944;11.776;2022-08-19T12:16:32;2.92;;;2.33;;
21825;SDS011;11075;47.944;11.776;2022-08-19T12:18:59;2.25;;;2.05;;
21825;SDS011;11075;47.944;11.776;2022-08-19T12:21:31;3.47;;;2.00;;
21825;SDS011;11075;47.944;11.776;2022-08-19T12:24:00;2.78;;;2.00;;
21825;SDS011;11075;47.944;11.776;2022-08-19T12:26:29;2.30;;;2.10;;
21825;SDS011;11075;47.944;11.776;2022-08-19T12:28:58;2.33;;;2.10;;
21825;SDS011;11075;47.944;11.776;2022-08-19T12:31:28;2.45;;;2.25;;
21825;SDS011;11075;47.944;11.776;2022-08-19T12:33:55;2.10;;;1.90;;
21825;SDS011;11075;47.944;11.776;2022-08-19T12:36:23;3.45;;;2.00;;
21825;SDS011;11075;47.944;11.776;2022-08-19T12:38:51;2.10;;;1.90;;
21825;SDS011;11075;47.944;11.776;2022-08-19T12:41:18;1.60;;;1.50;;
21825;SDS011;11075;47.944;11.776;2022-08-19T12:43:49;1.70;;;1.60;;
21825;SDS011;11075;47.944;11.776;2022-08-19T12:46:17;1.60;;;1.50;;
21825;SDS011;11075;47.944;11.776;2022-08-19T12:48:47;1.60;;;1.50;;
21825;SDS011;11075;47.944;11.776;2022-08-19T12:51:20;1.75;;;1.65;;
21825;SDS011;11075;47.944;11.776;2022-08-19T12:53:47;2.13;;;1.95;;
21825;SDS011;11075;47.944;11.776;2022-08-19T12:56:16;1.88;;;1.67;;
21825;SDS011;11075;47.944;11.776;2022-08-19T12:58:48;1.80;;;1.58;;
21825;SDS011;11075;47.944;11.776;2022-08-19T13:01:16;1.85;;;1.73;;
21825;SDS011;11075;47.944;11.776;2022-08-19T13:03:48;5.85;;;4.25;;
21825;SDS011;11075;47.944;11.776;2022-08-19T13:06:16;4.45;;;4.00;;
21825;SDS011;11075;47.944;11.776;2022-08-19T13:08:45;4.85;;;3.97;;
21825;SDS011;11075;47.944;11.776;2022-08-19T13:11:14;4.50;;;3.92;;
21825;SDS011;11075;47.944;11.776;2022-08-19T13:13:44;3.72;;;3.38;;
21825;SDS011;11075;47.944;11.776;2022-08-19T13:16:13;3.10;;;2.80;;
21825;SDS011;11075;47.944;11.776;2022-08-19T13:18:41;3.63;;;2.97;;
21825;SDS011;11075;47.944;11.776;2022-08-19T13:21:10;3.83;;;3.38;;
21825;SDS011;11075;47.944;11.776;2022-08-19T13:23:40;4.00;;;2.92;;
21825;SDS011;11075;47.944;11.776;2022-08-19T13:26:08;3.65;;;3.25;;
21825;SDS011;11075;47.944;11.776;2022-08-19T13:28:36;2.95;;;2.58;;
21825;SDS011;11075;47.944;11.776;2022-08-19T13:31:23;3.25;;;2.95;;
21825;SDS011;11075;47.944;11.776;2022-08-19T13:34:12;3.47;;;3.17;;
21825;SDS011;11075;47.944;11.776;2022-08-19T13:36:39;2.85;;;2.65;;
21825;SDS011;11075;47.944;11.776;2022-08-19T13:39:06;3.97;;;3.17;;
21825;SDS011;11075;47.944;11.776;2022-08-19T13:41:35;3.08;;;2.80;;
21825;SDS011;11075;47.944;11.776;2022-08-19T13:44:03;3.05;;;2.70;;
21825;SDS011;11075;47.944;11.776;2022-08-19T13:46:32;2.60;;;2.40;;
21825;SDS011;11075;47.944;11.776;2022-08-19T13:48:59;2.50;;;2.30;;
21825;SDS011;11075;47.944;11.776;2022-08-19T13:51:26;1.95;;;1.70;;
21825;SDS011;11075;47.944;11.776;2022-08-19T13:53:53;1.60;;;1.50;;
21825;SDS011;11075;47.944;11.776;2022-08-19T13:56:21;1.40;;;1.30;;
21825;SDS011;11075;47.944;11.776;2022-08-19T13:58:51;2.75;;;1.25;;
21825;SDS011;11075;47.944;11.776;2022-08-19T14:01:22;1.88;;;0.85;;
21825;SDS011;11075;47.944;11.776;2022-08-19T14:03:50;0.80;;;0.80;;
21825;SDS011;11075;47.944;11.776;2022-08-19T14:06:17;0.95;;;0.82;;
21825;SDS011;11075;47.944;11.776;2022-08-19T14:08:45;0.73;;;0.73;;
21825;SDS011;11075;47.944;11.776;2022-08-19T14:11:13;0.70;;;0.60;;
21825;SDS011;11075;47.944;11.776;2022-08-19T14:13:40;1.17;;;1.05;;
21825;SDS011;11075;47.944;11.776;2022-08-19T14:16:08;0.80;;;0.80;;
21825;SDS011;11075;47.944;11.776;2022-08-19T14:18:36;1.35;;;1.00;;
21825;SDS011;11075;47.944;11.776;2022-08-19T14:21:03;0.77;;;0.77;;
21825;SDS011;11075;47.944;11.776;2022-08-19T14:23:31;1.17;;;0.80;;
21825;SDS011;11075;47.944;11.776;2022-08-19T14:26:03;1.17;;;0.88;;
21825;SDS011;11075;47.944;11.776;2022-08-19T14:28:34;1.00;;;0.80;;
21825;SDS011;11075;47.944;11.776;2022-08-19T14:31:00;1.60;;;1.00;;
21825;SDS011;11075;47.944;11.776;2022-08-19T14:33:27;1.80;;;0.90;;
21825;SDS011;11075;47.944;11.776;2022-08-19T14:35:56;1.42;;;0.85;;
21825;SDS011;11075;47.944;11.776;2022-08-19T14:38:25;1.92;;;0.60;;
21825;SDS011;11075;47.944;11.776;2022-08-19T14:41:07;0.80;;;0.80;;
21825;SDS011;11075;47.944;11.776;2022-08-19T14:43:46;1.30;;;0.70;;
21825;SDS011;11075;47.944;11.776;2022-08-19T14:46:15;1.25;;;1.00;;
21825;SDS011;11075;47.944;11.776;2022-08-19T14:48:46;0.85;;;0.65;;
21825;SDS011;11075;47.944;11.776;2022-08-19T14:51:17;2.05;;;0.60;;
21825;SDS011;11075;47.944;11.776;2022-08-19T14:53:46;1.92;;;0.80;;
21825;SDS011;11075;47.944;11.776;2022-08-19T14:56:16;0.70;;;0.70;;
21825;SDS011;11075;47.944;11.776;2022-08-19T14:58:44;0.70;;;0.70;;
21825;SDS011;11075;47.944;11.776;2022-08-19T15:01:11;0.57;;;0.57;;